createdAt,value
2022-11-29T00:00:15.343Z,19.20
2022-11-29T00:02:43.492Z,19.95
2022-11-29T00:05:10.255Z,19.63
2022-11-29T00:07:37.029Z,21.75
2022-11-29T00:10:04.170Z,17.95
2022-11-29T00:12:30.814Z,18.10
2022-11-29T00:14:57.453Z,20.08
2022-11-29T00:17:24.179Z,21.50
2022-11-29T00:19:52.248Z,18.45
2022-11-29T00:22:19.009Z,17.27
2022-11-29T00:24:45.925Z,18.63
2022-11-29T00:27:12.776Z,20.55
2022-11-29T00:29:39.412Z,21.88
2022-11-29T00:32:06.097Z,19.15
2022-11-29T00:34:32.849Z,19.63
2022-11-29T00:37:00.913Z,20.63
2022-11-29T00:39:27.605Z,20.27
2022-11-29T00:41:54.241Z,19.02
2022-11-29T00:44:20.992Z,20.48
2022-11-29T00:46:48.443Z,18.75
2022-11-29T00:49:15.218Z,18.92
2022-11-29T00:51:41.884Z,20.17
2022-11-29T00:54:09.870Z,18.48
2022-11-29T00:56:36.559Z,19.77
2022-11-29T00:59:03.197Z,20.17
2022-11-29T01:01:29.984Z,19.38
2022-11-29T01:03:56.736Z,16.95
2022-11-29T01:06:23.462Z,18.50
2022-11-29T01:08:50.174Z,19.38
2022-11-29T01:11:20.704Z,17.95
2022-11-29T01:13:47.901Z,18.40
2022-11-29T01:16:16.615Z,22.10
2022-11-29T01:18:43.526Z,21.52
2022-11-29T01:21:12.949Z,18.67
2022-11-29T01:23:40.064Z,18.13
2022-11-29T01:26:08.468Z,18.65
2022-11-29T01:28:37.940Z,21.08
2022-11-29T01:31:08.910Z,21.25
2022-11-29T01:33:36.522Z,20.30
2022-11-29T01:36:04.044Z,17.48
2022-11-29T01:38:30.756Z,19.42
2022-11-29T01:40:59.931Z,18.52
2022-11-29T01:43:26.994Z,21.60
2022-11-29T01:45:55.147Z,18.48
2022-11-29T01:48:23.744Z,20.65
2022-11-29T01:50:51.243Z,21.70
2022-11-29T01:53:17.954Z,20.15
2022-11-29T01:55:48.443Z,18.45
2022-11-29T01:58:15.423Z,19.60
2022-11-29T02:00:42.183Z,20.45
2022-11-29T02:03:12.214Z,22.02
2022-11-29T02:05:42.103Z,22.70
2022-11-29T02:08:10.957Z,21.27
2022-11-29T02:10:51.018Z,25.25
2022-11-29T02:13:27.254Z,21.58
2022-11-29T02:16:02.549Z,19.73
2022-11-29T02:18:40.868Z,20.75
2022-11-29T02:21:38.557Z,22.43
2022-11-29T02:24:46.944Z,20.38
2022-11-29T02:27:47.294Z,22.17
2022-11-29T02:30:22.885Z,20.30
2022-11-29T02:33:38.696Z,20.55
2022-11-29T02:36:38.432Z,18.27
2022-11-29T02:39:44.868Z,20.95
2022-11-29T02:42:34.415Z,21.33
2022-11-29T02:45:10.505Z,19.77
2022-11-29T02:47:52.679Z,22.23
2022-11-29T02:50:34.897Z,24.50
2022-11-29T02:53:09.351Z,21.30
2022-11-29T02:55:43.953Z,18.17
2022-11-29T02:58:19.130Z,19.48
2022-11-29T03:00:57.302Z,20.77
2022-11-29T03:03:30.854Z,19.47
2022-11-29T03:06:07.985Z,18.67
2022-11-29T03:08:40.785Z,19.30
2022-11-29T03:11:20.097Z,19.90
2022-11-29T03:13:53.815Z,20.52
2022-11-29T03:16:37.101Z,20.50
2022-11-29T03:19:29.393Z,19.08
2022-11-29T03:22:07.271Z,20.30
2022-11-29T03:24:40.084Z,20.02
2022-11-29T03:27:11.378Z,21.23
2022-11-29T03:29:43.433Z,21.77
2022-11-29T03:32:16.819Z,20.60
2022-11-29T03:34:57.440Z,23.38
2022-11-29T03:37:35.213Z,19.73
2022-11-29T03:40:06.407Z,22.35
2022-11-29T03:42:38.447Z,21.10
2022-11-29T03:45:10.918Z,19.50
2022-11-29T03:47:41.940Z,23.30
2022-11-29T03:50:13.997Z,20.50
2022-11-29T03:52:49.628Z,21.42
2022-11-29T03:55:31.215Z,20.45
2022-11-29T03:58:10.249Z,19.65
2022-11-29T04:00:55.919Z,21.10
2022-11-29T04:03:37.866Z,21.05
2022-11-29T04:06:18.327Z,21.48
2022-11-29T04:09:27.257Z,19.57
2022-11-29T04:12:30.010Z,20.52
2022-11-29T04:15:24.770Z,23.35
2022-11-29T04:18:31.714Z,22.27
2022-11-29T04:21:32.890Z,21.95
2022-11-29T04:24:24.674Z,21.02
2022-11-29T04:27:38.442Z,23.88
2022-11-29T04:30:13.357Z,21.88
2022-11-29T04:33:17.823Z,19.60
2022-11-29T04:36:28.514Z,22.08
2022-11-29T04:39:24.475Z,21.92
2022-11-29T04:42:27.694Z,22.50
2022-11-29T04:45:24.653Z,21.73
2022-11-29T04:48:03.111Z,23.13
2022-11-29T04:50:46.049Z,21.08
2022-11-29T04:53:30.827Z,24.47
2022-11-29T04:56:07.840Z,23.98
2022-11-29T04:58:40.931Z,23.08
2022-11-29T05:01:20.769Z,23.33
2022-11-29T05:03:57.233Z,22.40
2022-11-29T05:06:29.849Z,26.42
2022-11-29T05:09:04.530Z,24.52
2022-11-29T05:11:44.526Z,24.13
2022-11-29T05:14:22.879Z,24.77
2022-11-29T05:16:58.027Z,24.20
2022-11-29T05:19:55.118Z,23.63
2022-11-29T05:22:33.415Z,24.15
2022-11-29T05:25:21.518Z,26.65
2022-11-29T05:27:52.419Z,25.70
2022-11-29T05:30:22.973Z,25.42
2022-11-29T05:32:56.833Z,25.92
2022-11-29T05:35:39.679Z,26.35
2022-11-29T05:38:21.806Z,26.95
2022-11-29T05:40:59.040Z,28.08
2022-11-29T05:43:44.782Z,27.30
2022-11-29T05:46:19.927Z,27.52
2022-11-29T05:48:54.514Z,28.50
2022-11-29T05:51:25.416Z,28.17
2022-11-29T05:54:00.805Z,30.80
2022-11-29T05:56:41.970Z,27.35
2022-11-29T05:59:12.791Z,27.20
2022-11-29T06:01:49.179Z,29.55
2022-11-29T06:04:20.361Z,30.50
2022-11-29T06:06:53.666Z,27.35
2022-11-29T06:09:27.288Z,29.20
2022-11-29T06:12:00.382Z,31.15
2022-11-29T06:14:47.236Z,30.13
2022-11-29T06:17:43.126Z,26.33
2022-11-29T06:20:23.284Z,28.73
2022-11-29T06:23:02.640Z,27.60
2022-11-29T06:25:43.161Z,28.48
2022-11-29T06:28:28.428Z,28.48
2022-11-29T06:30:59.934Z,30.60
2022-11-29T06:33:34.916Z,27.08
2022-11-29T06:36:13.946Z,30.02
2022-11-29T06:38:41.032Z,27.20
2022-11-29T06:41:16.444Z,27.52
2022-11-29T06:43:44.392Z,27.85
2022-11-29T06:46:18.821Z,31.60
2022-11-29T06:48:51.628Z,29.50
2022-11-29T06:51:25.697Z,26.80
2022-11-29T06:54:03.722Z,27.05
2022-11-29T06:56:41.010Z,29.10
2022-11-29T06:59:17.340Z,30.00
2022-11-29T07:01:48.129Z,27.33
2022-11-29T07:04:45.904Z,28.10
2022-11-29T07:07:15.435Z,29.05
2022-11-29T07:09:52.123Z,28.17
2022-11-29T07:12:19.404Z,30.77
2022-11-29T07:14:46.679Z,32.00
2022-11-29T07:17:18.816Z,30.52
2022-11-29T07:19:57.096Z,28.52
2022-11-29T07:22:43.858Z,27.20
2022-11-29T07:25:24.582Z,29.23
2022-11-29T07:28:02.194Z,30.52
2022-11-29T07:30:39.927Z,28.75
2022-11-29T07:33:17.709Z,30.25
2022-11-29T07:35:52.187Z,30.42
2022-11-29T07:38:25.654Z,32.97
2022-11-29T07:41:00.166Z,30.42
2022-11-29T07:43:38.900Z,27.15
2022-11-29T07:46:05.932Z,28.42
2022-11-29T07:48:32.935Z,29.20
2022-11-29T07:51:00.892Z,30.23
2022-11-29T07:53:28.122Z,27.83
2022-11-29T07:55:57.263Z,27.27
2022-11-29T07:58:24.666Z,28.10
2022-11-29T08:00:53.674Z,26.92
2022-11-29T08:03:20.353Z,27.50
2022-11-29T08:05:50.135Z,30.67
2022-11-29T08:08:16.868Z,29.40
2022-11-29T08:10:43.611Z,29.17
2022-11-29T08:13:11.765Z,27.42
2022-11-29T08:15:43.941Z,28.40
2022-11-29T08:18:10.598Z,31.98
2022-11-29T08:20:39.685Z,26.15
2022-11-29T08:23:06.362Z,27.60
2022-11-29T08:25:33.067Z,29.75
2022-11-29T08:28:05.185Z,29.50
2022-11-29T08:30:36.941Z,29.65
2022-11-29T08:33:04.075Z,28.08
2022-11-29T08:35:30.770Z,30.48
2022-11-29T08:37:57.451Z,31.83
2022-11-29T08:40:24.294Z,28.17
2022-11-29T08:42:51.170Z,27.70
2022-11-29T08:45:18.090Z,26.85
2022-11-29T08:47:46.140Z,24.85
2022-11-29T08:50:14.796Z,29.13
2022-11-29T08:52:43.528Z,28.27
2022-11-29T08:55:10.473Z,27.83
2022-11-29T08:57:40.597Z,27.58
2022-11-29T09:00:10.097Z,28.13
2022-11-29T09:02:37.195Z,28.30
2022-11-29T09:05:06.393Z,28.65
2022-11-29T09:07:33.392Z,26.65
2022-11-29T09:10:02.880Z,29.60
2022-11-29T09:12:29.515Z,25.67
2022-11-29T09:14:56.141Z,25.45
2022-11-29T09:17:22.828Z,29.63
2022-11-29T09:19:49.566Z,30.10
2022-11-29T09:22:17.777Z,29.52
2022-11-29T09:24:44.644Z,27.00
2022-11-29T09:27:11.983Z,25.73
2022-11-29T09:29:38.624Z,25.55
2022-11-29T09:32:06.883Z,30.70
2022-11-29T09:34:33.653Z,32.08
2022-11-29T09:37:00.387Z,32.70
2022-11-29T09:39:28.490Z,30.48
2022-11-29T09:42:26.424Z,27.60
2022-11-29T09:45:02.824Z,27.27
2022-11-29T09:47:52.079Z,30.83
2022-11-29T09:50:28.189Z,29.30
2022-11-29T09:53:15.654Z,25.45
2022-11-29T09:55:53.354Z,27.85
2022-11-29T09:58:24.613Z,27.70
2022-11-29T10:00:54.850Z,25.27
2022-11-29T10:03:26.345Z,25.40
2022-11-29T10:05:58.182Z,25.77
2022-11-29T10:08:31.390Z,23.25
2022-11-29T10:11:22.886Z,24.13
2022-11-29T10:13:54.376Z,26.00
2022-11-29T10:16:30.673Z,25.13
2022-11-29T10:19:04.500Z,24.88
2022-11-29T10:21:36.337Z,27.55
2022-11-29T10:24:07.006Z,23.13
2022-11-29T10:26:35.610Z,25.30
2022-11-29T10:29:02.443Z,22.95
2022-11-29T10:31:32.812Z,25.15
2022-11-29T10:34:02.550Z,27.15
2022-11-29T10:36:36.566Z,23.65
2022-11-29T10:39:14.294Z,23.60
2022-11-29T10:41:43.049Z,26.27
2022-11-29T10:44:14.289Z,22.80
2022-11-29T10:46:41.408Z,22.35
2022-11-29T10:49:13.366Z,22.40
2022-11-29T10:51:40.193Z,22.30
2022-11-29T10:54:21.729Z,22.63
2022-11-29T10:56:50.224Z,21.15
2022-11-29T10:59:22.474Z,21.30
2022-11-29T11:01:49.540Z,21.13
2022-11-29T11:04:26.522Z,16.63
2022-11-29T11:06:54.757Z,17.20
2022-11-29T11:09:26.870Z,18.00
2022-11-29T11:12:02.394Z,19.02
2022-11-29T11:14:30.570Z,24.25
2022-11-29T11:17:19.254Z,22.55
2022-11-29T11:19:54.796Z,18.85
2022-11-29T11:22:27.493Z,22.52
2022-11-29T11:24:59.770Z,18.55
2022-11-29T11:27:33.198Z,17.38
2022-11-29T11:30:01.133Z,17.83
2022-11-29T11:32:27.853Z,20.27
2022-11-29T11:34:55.823Z,18.23
2022-11-29T11:37:24.551Z,20.27
2022-11-29T11:39:54.400Z,18.63
2022-11-29T11:42:23.001Z,19.10
2022-11-29T11:44:51.778Z,17.77
2022-11-29T11:47:21.203Z,17.08
2022-11-29T11:49:50.006Z,18.88
2022-11-29T11:52:25.174Z,16.35
2022-11-29T11:54:55.338Z,18.20
2022-11-29T11:57:26.770Z,17.73
2022-11-29T11:59:56.341Z,19.35
2022-11-29T12:02:28.703Z,17.08
2022-11-29T12:04:58.932Z,17.70
2022-11-29T12:08:06.261Z,17.80
2022-11-29T12:10:26.913Z,19.48
2022-11-29T12:12:55.740Z,17.52
2022-11-29T12:15:28.240Z,18.95
2022-11-29T12:18:01.903Z,18.13
2022-11-29T12:20:33.753Z,19.95
2022-11-29T12:23:13.665Z,18.77
2022-11-29T12:25:45.739Z,19.90
2022-11-29T12:28:19.859Z,18.88
2022-11-29T12:30:54.765Z,16.67
2022-11-29T12:33:33.029Z,17.80
2022-11-29T12:36:20.242Z,16.63
2022-11-29T12:39:06.608Z,17.60
2022-11-29T12:41:43.808Z,16.42
2022-11-29T12:44:23.662Z,16.67
2022-11-29T12:49:57.336Z,18.70
2022-11-29T12:52:31.996Z,18.52
2022-11-29T12:55:08.150Z,17.95
2022-11-29T12:57:43.579Z,17.23
2022-11-29T13:00:17.615Z,20.60
2022-11-29T13:03:03.762Z,19.10
2022-11-29T13:05:54.566Z,18.05
2022-11-29T13:08:46.341Z,18.05
2022-11-29T13:11:19.258Z,18.85
2022-11-29T13:13:49.055Z,18.17
2022-11-29T13:16:31.650Z,20.13
2022-11-29T13:19:07.145Z,22.00
2022-11-29T13:21:40.147Z,18.00
2022-11-29T13:24:11.076Z,23.35
2022-11-29T13:26:39.987Z,22.85
2022-11-29T13:29:11.409Z,21.83
2022-11-29T13:31:38.835Z,23.10
2022-11-29T13:34:12.289Z,21.15
2022-11-29T13:36:48.063Z,22.80
2022-11-29T13:39:27.624Z,20.50
2022-11-29T13:42:02.141Z,21.55
2022-11-29T13:44:37.051Z,18.67
2022-11-29T13:47:06.763Z,20.63
2022-11-29T13:49:58.978Z,19.05
2022-11-29T13:52:40.999Z,19.40
2022-11-29T13:55:23.290Z,19.38
2022-11-29T14:00:50.232Z,18.65
2022-11-29T14:03:29.280Z,19.13
2022-11-29T14:06:17.333Z,19.40
2022-11-29T14:09:21.409Z,20.60
2022-11-29T14:11:51.692Z,18.60
2022-11-29T14:14:24.475Z,19.98
2022-11-29T14:16:56.999Z,21.80
2022-11-29T14:19:28.861Z,18.52
2022-11-29T14:22:25.200Z,23.10
2022-11-29T14:25:16.601Z,18.80
2022-11-29T14:28:03.088Z,20.13
2022-11-29T14:30:47.923Z,19.30
2022-11-29T14:33:56.002Z,19.40
2022-11-29T14:36:42.244Z,16.30
2022-11-29T14:39:23.965Z,18.35
2022-11-29T14:42:03.789Z,19.85
2022-11-29T14:44:32.177Z,20.13
2022-11-29T14:47:02.682Z,24.60
2022-11-29T14:49:31.640Z,22.73
2022-11-29T14:52:21.037Z,19.70
2022-11-29T14:54:58.315Z,21.58
2022-11-29T14:58:15.823Z,22.98
2022-11-29T15:01:08.076Z,21.60
2022-11-29T15:03:42.377Z,21.65
2022-11-29T15:06:14.547Z,22.92
2022-11-29T15:08:50.305Z,23.63
2022-11-29T15:11:33.093Z,20.38
2022-11-29T15:14:04.537Z,20.27
2022-11-29T15:16:52.299Z,21.25
2022-11-29T15:20:06.462Z,21.58
2022-11-29T15:22:46.705Z,21.90
2022-11-29T15:25:17.126Z,23.83
2022-11-29T15:27:53.565Z,22.38
2022-11-29T15:30:32.128Z,22.27
2022-11-29T15:33:00.219Z,23.23
2022-11-29T15:35:27.733Z,25.20
2022-11-29T15:37:54.872Z,23.83
2022-11-29T15:40:23.318Z,25.80
2022-11-29T15:42:55.319Z,24.27
2022-11-29T15:45:28.248Z,23.42
2022-11-29T15:48:11.859Z,21.05
2022-11-29T15:50:41.422Z,22.50
2022-11-29T15:53:15.079Z,21.83
2022-11-29T15:55:42.778Z,24.17
2022-11-29T15:58:13.657Z,20.05
2022-11-29T16:00:40.614Z,20.30
2022-11-29T16:03:17.806Z,21.85
2022-11-29T16:05:50.418Z,22.45
2022-11-29T16:08:19.764Z,19.10
2022-11-29T16:10:48.515Z,21.00
2022-11-29T16:13:32.378Z,21.00
2022-11-29T16:16:09.345Z,16.70
2022-11-29T16:18:37.506Z,14.57
2022-11-29T16:21:05.914Z,18.55
2022-11-29T16:23:33.748Z,15.52
2022-11-29T16:26:13.075Z,15.40
2022-11-29T16:28:45.550Z,15.35
2022-11-29T16:31:18.174Z,16.48
2022-11-29T16:33:45.914Z,15.77
2022-11-29T16:36:16.373Z,15.95
2022-11-29T16:38:45.916Z,18.17
2022-11-29T16:41:22.786Z,15.73
2022-11-29T16:43:53.695Z,14.90
2022-11-29T16:46:29.900Z,17.70
2022-11-29T16:48:58.321Z,17.17
2022-11-29T16:51:26.534Z,15.38
2022-11-29T16:53:54.245Z,17.73
2022-11-29T16:56:23.333Z,16.33
2022-11-29T16:59:25.219Z,17.60
2022-11-29T17:01:40.320Z,17.65
2022-11-29T17:04:09.020Z,17.77
2022-11-29T17:06:35.874Z,17.85
2022-11-29T17:09:03.019Z,16.48
2022-11-29T17:11:29.659Z,17.10
2022-11-29T17:13:58.114Z,21.55
2022-11-29T17:16:24.970Z,23.27
2022-11-29T17:18:51.936Z,21.08
2022-11-29T17:21:19.413Z,23.15
2022-11-29T17:23:46.453Z,22.23
2022-11-29T17:26:13.187Z,20.88
2022-11-29T17:28:40.137Z,24.88
2022-11-29T17:31:12.630Z,23.63
2022-11-29T17:33:39.490Z,22.35
2022-11-29T17:36:07.057Z,22.23
2022-11-29T17:38:33.918Z,20.35
2022-11-29T17:41:06.330Z,21.23
2022-11-29T17:43:33.372Z,23.17
2022-11-29T17:46:00.176Z,20.55
2022-11-29T17:48:33.387Z,19.40
2022-11-29T17:51:01.037Z,20.58
2022-11-29T17:53:27.758Z,16.67
2022-11-29T17:55:54.450Z,17.30
2022-11-29T17:58:21.223Z,16.73
2022-11-29T18:00:47.841Z,17.80
2022-11-29T18:03:14.555Z,19.13
2022-11-29T18:05:42.693Z,16.23
2022-11-29T18:08:09.333Z,16.13
2022-11-29T18:10:36.036Z,18.60
2022-11-29T18:13:02.689Z,17.10
2022-11-29T18:15:29.387Z,17.90
2022-11-29T18:17:56.114Z,19.58
2022-11-29T18:20:22.779Z,21.42
2022-11-29T18:22:50.845Z,22.55
2022-11-29T18:25:38.341Z,24.40
2022-11-29T18:28:04.611Z,25.85
2022-11-29T18:30:31.318Z,26.73
2022-11-29T18:32:57.988Z,26.98
2022-11-29T18:35:24.667Z,28.00
2022-11-29T18:38:15.397Z,27.63
2022-11-29T18:40:39.505Z,29.95
2022-11-29T18:43:06.231Z,28.13
2022-11-29T18:45:35.119Z,28.42
2022-11-29T18:48:01.775Z,33.53
2022-11-29T18:50:28.536Z,27.70
2022-11-29T18:52:56.672Z,28.30
2022-11-29T18:55:23.358Z,27.23
2022-11-29T18:57:50.331Z,27.80
2022-11-29T19:00:17.429Z,27.77
2022-11-29T19:02:44.135Z,27.70
2022-11-29T19:05:10.806Z,24.30
2022-11-29T19:07:37.534Z,26.27
2022-11-29T19:10:07.411Z,25.98
2022-11-29T19:12:34.223Z,29.58
2022-11-29T19:15:00.851Z,31.13
2022-11-29T19:17:27.569Z,36.10
2022-11-29T19:19:54.184Z,32.65
2022-11-29T19:22:20.910Z,28.70
2022-11-29T19:24:47.823Z,28.85
2022-11-29T19:27:15.979Z,26.15
2022-11-29T19:29:42.615Z,27.85
2022-11-29T19:32:09.320Z,28.08
2022-11-29T19:34:35.971Z,27.80
2022-11-29T19:37:02.722Z,28.90
2022-11-29T19:39:29.392Z,29.40
2022-11-29T19:41:56.081Z,27.45
2022-11-29T19:44:29.276Z,30.17
2022-11-29T19:46:56.723Z,27.35
2022-11-29T19:49:23.488Z,28.90
2022-11-29T19:51:50.131Z,29.65
2022-11-29T19:54:16.793Z,28.10
2022-11-29T19:56:43.772Z,29.58
2022-11-29T19:59:10.790Z,31.90
2022-11-29T20:01:41.896Z,28.85
2022-11-29T20:04:10.940Z,32.28
2022-11-29T20:06:38.145Z,30.85
2022-11-29T20:09:05.060Z,29.23
2022-11-29T20:11:31.876Z,32.22
2022-11-29T20:13:59.943Z,28.67
2022-11-29T20:16:27.637Z,28.00
2022-11-29T20:18:56.433Z,28.45
2022-11-29T20:21:24.979Z,28.52
2022-11-29T20:23:55.753Z,24.13
2022-11-29T20:26:22.509Z,26.88
2022-11-29T20:28:49.267Z,23.02
2022-11-29T20:31:17.878Z,27.92
2022-11-29T20:33:46.247Z,23.60
2022-11-29T20:36:25.472Z,23.23
2022-11-29T20:38:57.795Z,24.92
2022-11-29T20:41:33.237Z,24.15
2022-11-29T20:44:02.033Z,24.88
2022-11-29T20:46:29.489Z,25.95
2022-11-29T20:48:59.405Z,25.92
2022-11-29T20:51:41.418Z,26.30
2022-11-29T20:54:09.962Z,24.25
2022-11-29T20:56:36.732Z,25.75
2022-11-29T20:59:03.515Z,28.17
2022-11-29T21:01:30.206Z,30.60
2022-11-29T21:03:56.887Z,29.55
2022-11-29T21:06:23.761Z,30.17
2022-11-29T21:08:51.776Z,30.05
2022-11-29T21:11:18.988Z,31.83
2022-11-29T21:13:46.169Z,32.00
2022-11-29T21:16:14.091Z,33.58
2022-11-29T21:18:41.301Z,31.50
2022-11-29T21:21:17.167Z,29.52
2022-11-29T21:23:56.615Z,29.20
2022-11-29T21:26:29.305Z,28.10
2022-11-29T21:29:05.940Z,29.92
2022-11-29T21:31:33.177Z,28.50
2022-11-29T21:34:00.400Z,30.55
2022-11-29T21:36:27.255Z,32.13
2022-11-29T21:38:55.702Z,33.42
2022-11-29T21:41:22.514Z,29.08
2022-11-29T21:46:36.052Z,31.85
2022-11-29T21:49:02.859Z,31.77
2022-11-29T21:51:29.509Z,29.92
2022-11-29T21:53:57.574Z,29.38
2022-11-29T21:56:24.249Z,26.20
2022-11-29T21:58:51.232Z,27.23
2022-11-29T22:01:20.170Z,31.00
2022-11-29T22:03:47.035Z,29.30
2022-11-29T22:06:16.323Z,28.70
2022-11-29T22:08:43.019Z,30.30
2022-11-29T22:11:13.127Z,26.83
2022-11-29T22:13:41.233Z,28.08
2022-11-29T22:16:09.606Z,30.40
2022-11-29T22:18:37.022Z,31.95
2022-11-29T22:21:05.894Z,29.98
2022-11-29T22:23:33.092Z,32.55
2022-11-29T22:26:04.294Z,27.05
2022-11-29T22:28:32.935Z,27.40
2022-11-29T22:31:04.911Z,32.47
2022-11-29T22:33:32.370Z,30.48
2022-11-29T22:36:02.640Z,31.63
2022-11-29T22:38:29.407Z,31.33
2022-11-29T22:40:59.471Z,30.90
2022-11-29T22:43:26.189Z,28.45
2022-11-29T22:45:54.254Z,28.33
2022-11-29T22:48:20.973Z,28.45
2022-11-29T22:50:47.645Z,28.90
2022-11-29T22:53:14.348Z,30.00
2022-11-29T22:55:41.006Z,28.42
2022-11-29T22:58:07.653Z,31.52
2022-11-29T23:00:34.425Z,27.02
2022-11-29T23:03:02.558Z,28.15
2022-11-29T23:05:32.206Z,26.52
2022-11-29T23:07:59.258Z,24.88
2022-11-29T23:10:26.045Z,26.30
2022-11-29T23:12:52.988Z,27.17
2022-11-29T23:15:19.671Z,28.80
2022-11-29T23:17:46.326Z,26.23
2022-11-29T23:20:14.666Z,27.10
2022-11-29T23:22:41.292Z,24.92
2022-11-29T23:25:08.330Z,23.13
2022-11-29T23:27:34.932Z,27.30
2022-11-29T23:30:01.614Z,25.58
2022-11-29T23:32:28.260Z,25.52
2022-11-29T23:34:54.915Z,27.42
2022-11-29T23:37:22.984Z,22.80
2022-11-29T23:39:49.662Z,27.45
2022-11-29T23:42:16.350Z,27.38
2022-11-29T23:44:43.105Z,25.85
2022-11-29T23:47:09.791Z,24.80
2022-11-29T23:49:36.510Z,25.80
2022-11-29T23:52:03.273Z,24.15
2022-11-29T23:54:31.309Z,25.30
2022-11-29T23:56:58.014Z,25.70
2022-11-29T23:59:24.675Z,27.38
